createdAt,value
2018-11-10T00:04:25.965Z,5.92
2018-11-10T00:10:20.787Z,7.43
2018-11-10T00:16:15.767Z,5.82
2018-11-10T00:22:10.807Z,7.93
2018-11-10T00:28:05.811Z,5.34
2018-11-10T00:34:00.843Z,5.38
2018-11-10T00:39:55.801Z,6.14
2018-11-10T00:45:50.835Z,7.34
2018-11-10T00:51:45.821Z,5.23
2018-11-10T00:57:40.813Z,5.53
2018-11-10T01:03:35.802Z,5.88
2018-11-10T01:09:30.816Z,5.44
2018-11-10T01:15:25.888Z,6.84
2018-11-10T01:21:20.827Z,8.16
2018-11-10T01:27:15.860Z,6.36
2018-11-10T01:33:10.856Z,6.83
2018-11-10T01:39:05.815Z,8.35
2018-11-10T01:45:00.898Z,6.76
2018-11-10T01:50:55.843Z,6.85
2018-11-10T01:56:50.893Z,6.69
2018-11-10T02:02:45.872Z,7.18
2018-11-10T02:08:40.841Z,6.7
2018-11-10T02:14:35.898Z,6.47
2018-11-10T02:20:30.846Z,7.27
2018-11-10T02:26:25.867Z,6.63
2018-11-10T02:32:20.932Z,6.5
2018-11-10T02:38:15.870Z,6.58
2018-11-10T02:44:10.860Z,5.8
2018-11-10T02:50:05.891Z,6.2
2018-11-10T02:56:00.888Z,6.15
2018-11-10T03:01:55.940Z,5.58
2018-11-10T03:07:50.908Z,5.56
2018-11-10T03:13:45.878Z,6.06
2018-11-10T03:19:40.889Z,5.7
2018-11-10T03:25:35.896Z,5.17
2018-11-10T03:31:30.901Z,6.82
2018-11-10T03:37:25.924Z,5.82
2018-11-10T03:43:20.909Z,6.15
2018-11-10T03:49:15.895Z,6.7
2018-11-10T03:55:10.910Z,6.2
2018-11-10T04:01:05.913Z,6.72
2018-11-10T04:07:00.935Z,6.29
2018-11-10T04:12:55.926Z,6.51
2018-11-10T04:18:50.922Z,6.15
2018-11-10T04:24:45.951Z,6.07
2018-11-10T04:30:40.957Z,4.89
2018-11-10T04:36:35.937Z,5.21
2018-11-10T04:42:30.944Z,5.03
2018-11-10T04:48:25.945Z,4.69
2018-11-10T04:54:20.943Z,4.71
2018-11-10T05:00:15.929Z,4.1
2018-11-10T05:06:10.984Z,4.37
2018-11-10T05:12:05.976Z,4.87
2018-11-10T05:18:00.992Z,4.69
2018-11-10T05:23:55.984Z,4.25
2018-11-10T05:29:50.956Z,4.27
2018-11-10T05:35:45.982Z,4.56
2018-11-10T05:41:41.005Z,5.37
2018-11-10T05:47:35.994Z,4.89
2018-11-10T05:53:30.983Z,4.77
2018-11-10T05:59:26.002Z,4.96
2018-11-10T06:05:20.975Z,5.17
2018-11-10T06:11:15.981Z,5.16
2018-11-10T06:17:10.996Z,4.84
2018-11-10T06:23:06.007Z,5.75
2018-11-10T06:29:01.008Z,5.48
2018-11-10T06:34:56.021Z,5.64
2018-11-10T06:40:51.001Z,5.93
2018-11-10T06:46:46.018Z,6.06
2018-11-10T06:52:41.083Z,5.51
2018-11-10T06:58:36.003Z,5.98
2018-11-10T07:04:31.029Z,5.09
2018-11-10T07:10:26.044Z,4.7
2018-11-10T07:16:21.075Z,4.73
2018-11-10T07:22:16.020Z,5.53
2018-11-10T07:28:11.030Z,5.63
2018-11-10T07:34:06.045Z,9.13
2018-11-10T07:40:01.052Z,8.48
2018-11-10T07:45:56.058Z,9.62
2018-11-10T07:51:51.051Z,13.16
2018-11-10T07:57:46.044Z,14.68
2018-11-10T08:03:41.064Z,16.78
2018-11-10T08:09:36.051Z,16.23
2018-11-10T08:15:31.050Z,15.27
2018-11-10T08:21:26.070Z,17.63
2018-11-10T08:27:21.080Z,18.58
2018-11-10T08:33:16.065Z,18.03
2018-11-10T08:39:11.099Z,17.76
2018-11-10T08:45:06.103Z,16.46
2018-11-10T08:51:01.081Z,18.14
2018-11-10T08:56:56.092Z,19.19
2018-11-10T09:02:51.080Z,20.13
2018-11-10T09:08:46.085Z,19.03
2018-11-10T09:14:41.144Z,19.6
2018-11-10T09:20:36.114Z,18.61
2018-11-10T09:26:31.113Z,17.71
2018-11-10T09:32:26.092Z,19.83
2018-11-10T09:38:21.096Z,17.06
2018-11-10T09:44:16.112Z,15.6
2018-11-10T09:50:11.119Z,13.53
2018-11-10T09:56:06.134Z,13.43
2018-11-10T10:02:01.562Z,11.33
2018-11-10T10:07:56.147Z,11.71
2018-11-10T10:13:51.134Z,10.43
2018-11-10T10:19:46.167Z,9.4
2018-11-10T10:25:41.196Z,7.02
2018-11-10T10:31:36.130Z,6.79
2018-11-10T10:37:31.138Z,7.85
2018-11-10T10:43:26.181Z,6.99
2018-11-10T10:49:21.147Z,6.72
2018-11-10T10:55:16.178Z,7.32
2018-11-10T11:01:11.190Z,8.39
2018-11-10T11:07:06.177Z,7.43
2018-11-10T11:13:01.215Z,6.98
2018-11-10T11:18:56.188Z,6.29
2018-11-10T11:24:51.185Z,6.94
2018-11-10T11:30:46.180Z,6.81
2018-11-10T11:36:41.217Z,7.27
2018-11-10T11:42:36.196Z,7.08
2018-11-10T11:48:31.189Z,6.59
2018-11-10T11:54:26.198Z,6.6
2018-11-10T12:00:21.217Z,6.48
2018-11-10T12:06:16.231Z,5.87
2018-11-10T12:12:11.214Z,5.65
2018-11-10T12:18:06.262Z,4.95
2018-11-10T12:24:01.241Z,4.8
2018-11-10T12:29:56.225Z,4.56
2018-11-10T12:35:51.245Z,4.76
2018-11-10T12:41:46.236Z,4.53
2018-11-10T12:47:41.316Z,3.82
2018-11-10T12:53:36.261Z,3.52
2018-11-10T12:59:31.231Z,4.09
2018-11-10T13:05:26.248Z,3.99
2018-11-10T13:11:21.415Z,3.6
2018-11-10T13:17:16.312Z,3.96
2018-11-10T13:23:11.263Z,3.79
2018-11-10T13:29:06.305Z,3.53
2018-11-10T13:35:01.294Z,3.53
2018-11-10T13:40:56.266Z,2.92
2018-11-10T13:46:51.283Z,4.14
2018-11-10T13:52:46.804Z,3.3
2018-11-10T13:58:41.331Z,3.8
2018-11-10T14:04:36.283Z,3.22
2018-11-10T14:10:31.316Z,3.89
2018-11-10T14:16:26.324Z,3.81
2018-11-10T14:22:21.321Z,3.38
2018-11-10T14:28:16.315Z,3.53
2018-11-10T14:34:11.304Z,2.9
2018-11-10T14:40:06.349Z,3.25
2018-11-10T14:46:01.335Z,3.15
2018-11-10T14:51:56.332Z,2.59
2018-11-10T14:57:51.372Z,2.64
2018-11-10T15:03:46.358Z,2.2
2018-11-10T15:09:41.344Z,2.43
2018-11-10T15:15:36.388Z,2.73
2018-11-10T15:21:31.357Z,2.82
2018-11-10T15:27:26.368Z,3.49
2018-11-10T15:33:21.373Z,4.04
2018-11-10T15:39:16.358Z,3.97
2018-11-10T15:45:11.429Z,3.84
2018-11-10T15:51:06.419Z,3.56
2018-11-10T15:57:01.589Z,3.73
2018-11-10T16:02:56.389Z,3.93
2018-11-10T16:08:51.409Z,4.02
2018-11-10T16:14:46.376Z,4.02
2018-11-10T16:20:41.436Z,5.66
2018-11-10T16:26:36.428Z,4.75
2018-11-10T16:32:31.427Z,3.83
2018-11-10T16:38:26.441Z,4.4
2018-11-10T16:44:21.440Z,3.76
2018-11-10T16:50:16.418Z,4.28
2018-11-10T16:56:11.412Z,17.07
2018-11-10T17:02:06.447Z,10.32
2018-11-10T17:08:01.463Z,10.02
2018-11-10T17:13:56.415Z,7.97
2018-11-10T17:19:51.437Z,4.41
2018-11-10T17:25:46.457Z,3.79
2018-11-10T17:31:41.438Z,5.51
2018-11-10T17:37:36.518Z,4.65
2018-11-10T17:43:31.513Z,4.98
2018-11-10T17:49:26.496Z,5.01
2018-11-10T17:55:21.460Z,4.89
2018-11-10T18:01:16.484Z,4.13
2018-11-10T18:07:11.469Z,4.93
2018-11-10T18:13:06.664Z,6.14
2018-11-10T18:19:01.597Z,10.06
2018-11-10T18:24:56.493Z,9.64
2018-11-10T18:30:51.478Z,7.57
2018-11-10T18:36:46.473Z,5.91
2018-11-10T18:42:41.494Z,6.32
2018-11-10T18:48:36.493Z,6.33
2018-11-10T18:54:31.499Z,9.48
2018-11-10T19:00:26.527Z,8.7
2018-11-10T19:06:21.622Z,5.47
2018-11-10T19:12:16.565Z,5.41
2018-11-10T19:18:11.515Z,6.47
2018-11-10T19:24:06.520Z,6.95
2018-11-10T19:30:01.514Z,5.32
2018-11-10T19:35:56.529Z,8.32
2018-11-10T19:41:51.524Z,5.6
2018-11-10T19:47:46.543Z,5.69
2018-11-10T19:53:41.531Z,5.25
2018-11-10T19:59:36.523Z,5.09
2018-11-10T20:05:31.571Z,5.41
2018-11-10T20:11:26.548Z,6.45
2018-11-10T20:17:21.543Z,11.49
2018-11-10T20:23:16.591Z,7.43
2018-11-10T20:29:11.567Z,7.75
2018-11-10T20:35:06.587Z,7.74
2018-11-10T20:41:01.593Z,7.86
2018-11-10T20:46:56.566Z,9.23
2018-11-10T20:52:51.593Z,10.76
2018-11-10T20:58:46.571Z,11.2
2018-11-10T21:04:41.574Z,11.58
2018-11-10T21:10:36.607Z,10.36
2018-11-10T21:16:31.590Z,7.12
2018-11-10T21:22:26.606Z,10.25
2018-11-10T21:28:21.634Z,11.11
2018-11-10T21:34:16.685Z,7.12
2018-11-10T21:40:11.597Z,9.7
2018-11-10T21:46:06.609Z,26.77
2018-11-10T21:52:01.650Z,17.47
2018-11-10T21:57:56.618Z,22.18
2018-11-10T22:03:51.628Z,19.54
2018-11-10T22:09:46.650Z,16.8
2018-11-10T22:15:41.636Z,18.27
2018-11-10T22:21:36.618Z,17.21
2018-11-10T22:27:31.619Z,22.36
2018-11-10T22:33:26.655Z,22.07
2018-11-10T22:39:21.635Z,15.39
2018-11-10T22:45:16.644Z,13.66
2018-11-10T22:51:11.684Z,13.73
2018-11-10T22:57:06.624Z,16.44
2018-11-10T23:03:01.670Z,21.51
2018-11-10T23:08:56.648Z,20.55
2018-11-10T23:14:51.660Z,19.7
2018-11-10T23:20:46.681Z,19.71
2018-11-10T23:26:41.678Z,18.58
2018-11-10T23:32:36.745Z,19.67
2018-11-10T23:38:31.678Z,17.96
2018-11-10T23:44:26.701Z,18.4
2018-11-10T23:50:21.695Z,17.39
2018-11-10T23:56:16.746Z,17.05
